Time;durP1;ratioP1;P1;durP2;ratioP2;P2;SDS_P1;SDS_P2;PMS_P1;PMS_P2;Temp;Humidity;BMP_temperature;BMP_pressure;BME280_temperature;BME280_humidity;BME280_pressure;Samples;Min_cycle;Max_cycle;Signal;HPM_P1;HPM_P2
2022/05/29 00:02:08;;;;;;;;;1.00;0.67;;;;;18.96;44.77;98146.38;4869300;28;102076;-79
2022/05/29 00:04:35;;;;;;;;;0.67;0.67;;;;;18.93;45.24;98149.66;4866949;28;101999;-79
2022/05/29 00:07:03;;;;;;;;;0.67;0.33;;;;;18.90;45.21;98150.22;4847260;28;101934;-79
2022/05/29 00:09:33;;;;;;;;;1.33;0.67;;;;;18.90;45.21;98152.94;4868901;28;103407;-79
2022/05/29 00:12:01;;;;;;;;;1.00;0.33;;;;;18.87;45.06;98151.53;4852053;28;102084;-80
2022/05/29 00:14:29;;;;;;;;;2.33;1.33;;;;;18.89;45.00;98148.56;4862471;28;102391;-79
2022/05/29 00:16:56;;;;;;;;;2.00;1.00;;;;;18.87;44.75;98146.06;4875942;28;101765;-79
2022/05/29 00:19:24;;;;;;;;;1.00;1.00;;;;;18.89;45.10;98143.06;4876368;28;103703;-79
2022/05/29 00:21:51;;;;;;;;;1.00;1.00;;;;;18.89;44.76;98137.59;4871743;28;102096;-80
2022/05/29 00:24:18;;;;;;;;;0.67;0.67;;;;;18.89;44.92;98143.06;4853277;28;101911;-79
2022/05/29 00:26:46;;;;;;;;;1.33;1.00;;;;;18.89;44.75;98143.91;4866657;28;101975;-79
2022/05/29 00:29:13;;;;;;;;;0.33;0.33;;;;;18.88;44.75;98146.91;4868024;28;103590;-79
2022/05/29 00:31:40;;;;;;;;;1.00;1.00;;;;;18.87;44.92;98147.97;4871461;28;103265;-77
2022/05/29 00:34:07;;;;;;;;;2.00;1.00;;;;;18.87;44.89;98145.25;4862024;28;101835;-79
2022/05/29 00:36:37;;;;;;;;;0.67;0.67;;;;;18.84;45.01;98140.31;4860407;28;101773;-79
2022/05/29 00:39:04;;;;;;;;;1.00;1.00;;;;;18.81;45.02;98144.41;4869729;28;103488;-79
2022/05/29 00:41:33;;;;;;;;;1.33;1.33;;;;;18.83;44.83;98146.88;4864188;28;102031;-79
2022/05/29 00:44:14;;;;;;;;;0.67;0.67;;;;;18.80;44.95;98144.66;4868494;28;101804;-80
2022/05/29 00:47:05;;;;;;;;;2.00;2.00;;;;;18.80;45.11;98145.50;4850324;28;105110;-77
2022/05/29 00:49:34;;;;;;;;;1.00;1.00;;;;;18.82;45.04;98137.84;4869989;28;103558;-79
2022/05/29 00:52:14;;;;;;;;;0.67;0.67;;;;;18.81;44.96;98146.31;4844319;28;101728;-80
2022/05/29 00:54:44;;;;;;;;;1.33;1.33;;;;;18.79;44.73;98141.09;4840288;28;101844;-79
2022/05/29 00:57:15;;;;;;;;;1.00;0.67;;;;;18.81;44.49;98136.19;4851549;28;109483;-80
2022/05/29 00:59:42;;;;;;;;;1.33;1.33;;;;;18.80;44.50;98131.78;4857704;28;103395;-79
2022/05/29 01:02:09;;;;;;;;;1.00;1.00;;;;;18.81;45.18;98129.88;4874081;28;102514;-79
2022/05/29 01:04:37;;;;;;;;;0.67;0.67;;;;;18.81;44.50;98127.16;4846502;28;102286;-79
2022/05/29 01:07:08;;;;;;;;;1.00;1.00;;;;;18.80;45.01;98122.75;4858145;28;101906;-79
2022/05/29 01:09:36;;;;;;;;;1.67;1.67;;;;;18.77;44.88;98128.78;4849463;28;103359;-80
2022/05/29 01:12:07;;;;;;;;;0.67;0.67;;;;;18.77;44.89;98126.84;4789932;28;101888;-79
2022/05/29 01:15:06;;;;;;;;;0.67;0.67;;;;;18.76;45.02;98133.41;4824301;28;101927;-80
2022/05/29 01:18:05;;;;;;;;;2.00;1.00;;;;;18.71;44.81;98136.94;4846048;28;102120;-80
2022/05/29 01:20:41;;;;;;;;;1.33;1.33;;;;;18.70;44.88;98129.00;4860266;28;108346;-80
2022/05/29 01:23:23;;;;;;;;;0.00;0.00;;;;;18.70;44.78;98121.59;4867631;28;101595;-79
2022/05/29 01:26:17;;;;;;;;;1.00;1.00;;;;;18.71;44.56;98126.00;4862835;28;102049;-79
2022/05/29 01:28:51;;;;;;;;;2.00;1.00;;;;;18.70;44.53;98127.06;4857948;28;102159;-79
2022/05/29 01:31:25;;;;;;;;;2.00;2.00;;;;;18.68;45.03;98123.78;4868607;28;103430;-79
2022/05/29 01:34:24;;;;;;;;;1.33;1.33;;;;;18.70;44.44;98121.59;4848260;28;102784;-79
2022/05/29 01:37:14;;;;;;;;;1.00;1.00;;;;;18.67;44.75;98124.06;4856529;28;101779;-79
2022/05/29 01:39:47;;;;;;;;;2.00;2.00;;;;;18.68;45.25;98126.53;4862749;28;101992;-79
2022/05/29 01:42:38;;;;;;;;;1.33;1.33;;;;;18.69;45.11;98127.34;4859198;28;108157;-79
2022/05/29 01:45:11;;;;;;;;;1.67;1.00;;;;;18.65;44.91;98132.53;4856140;28;101991;-80
2022/05/29 01:47:46;;;;;;;;;2.33;2.00;;;;;18.65;44.66;98124.31;4860773;28;102227;-79
2022/05/29 01:50:56;;;;;;;;;1.67;1.67;;;;;18.65;44.66;98127.03;4844152;28;102785;-80
2022/05/29 01:53:27;;;;;;;;;1.00;1.00;;;;;18.62;44.74;98116.63;4776018;29;108243;-79
2022/05/29 01:55:56;;;;;;;;;1.33;1.00;;;;;18.63;44.51;98112.81;4858260;28;101836;-80
2022/05/29 01:58:33;;;;;;;;;2.00;2.00;;;;;18.61;44.63;98104.03;4860493;28;101825;-79
2022/05/29 02:01:01;;;;;;;;;2.00;2.00;;;;;18.61;45.05;98120.44;4841730;28;101999;-79
2022/05/29 02:03:59;;;;;;;;;1.00;1.00;;;;;18.63;44.71;98122.94;4868040;28;103499;-80
2022/05/29 02:07:47;;;;;;;;;1.67;1.00;;;;;18.63;44.42;98115.53;4844554;28;101747;-79
2022/05/29 02:09:16;;;;;;;;;2.00;2.00;;;;;18.61;45.06;98117.72;4851729;28;101928;-79
2022/05/29 02:11:49;;;;;;;;;1.00;1.00;;;;;18.63;45.14;98111.97;4870668;28;101833;-79
2022/05/29 02:14:19;;;;;;;;;1.67;1.67;;;;;18.61;44.81;98114.97;4868958;28;103361;-79
2022/05/29 02:16:55;;;;;;;;;1.67;1.00;;;;;18.62;44.82;98132.22;4849121;28;101786;-79
2022/05/29 02:19:36;;;;;;;;;2.00;1.33;;;;;18.58;44.76;98140.16;4853329;28;102139;-79
2022/05/29 02:22:09;;;;;;;;;2.00;1.00;;;;;18.58;44.64;98148.38;4856682;28;101835;-79
2022/05/29 02:24:41;;;;;;;;;2.00;2.00;;;;;18.59;44.73;98143.72;4868845;28;103547;-80
2022/05/29 02:27:16;;;;;;;;;2.00;1.00;;;;;18.55;44.89;98137.94;4829599;28;102095;-79
2022/05/29 02:29:43;;;;;;;;;1.00;1.00;;;;;18.56;45.00;98149.69;4849262;28;101897;-77
2022/05/29 02:32:34;;;;;;;;;2.00;2.00;;;;;18.57;44.94;98146.72;4875652;28;101933;-79
2022/05/29 02:35:07;;;;;;;;;2.00;1.67;;;;;18.56;44.65;98138.75;4869833;28;108304;-79
2022/05/29 02:37:51;;;;;;;;;1.33;1.33;;;;;18.54;44.82;98152.72;4852731;28;102390;-79
2022/05/29 02:40:24;;;;;;;;;2.00;2.00;;;;;18.56;44.87;98144.22;4872502;28;102038;-79
2022/05/29 02:43:07;;;;;;;;;1.00;1.00;;;;;18.55;44.70;98143.41;4876026;28;102129;-79
2022/05/29 02:45:51;;;;;;;;;1.00;1.00;;;;;18.56;44.54;98150.53;4870534;28;103637;-79
2022/05/29 02:48:32;;;;;;;;;2.00;2.00;;;;;18.56;44.73;98156.00;4872311;28;101894;-79
2022/05/29 02:51:31;;;;;;;;;2.00;1.00;;;;;18.53;44.79;98155.72;4853646;28;102654;-80
2022/05/29 02:53:58;;;;;;;;;1.00;1.00;;;;;18.51;44.87;98147.72;4846934;28;101825;-79
2022/05/29 02:56:26;;;;;;;;;1.00;1.00;;;;;18.52;45.06;98157.59;4854207;28;103658;-79
2022/05/29 02:58:54;;;;;;;;;2.00;2.00;;;;;18.52;44.39;98154.84;4869509;28;101825;-79
2022/05/29 03:01:39;;;;;;;;;2.00;2.00;;;;;18.48;44.99;98159.22;4868361;28;101906;-79
2022/05/29 03:04:07;;;;;;;;;1.00;1.00;;;;;18.50;44.60;98168.00;4870338;28;101817;-79
2022/05/29 03:07:03;;;;;;;;;2.33;2.00;;;;;18.48;44.75;98159.22;4869815;28;103501;-79
2022/05/29 03:09:51;;;;;;;;;1.67;1.00;;;;;18.47;44.76;98157.56;4841801;28;101733;-79
2022/05/29 03:12:30;;;;;;;;;2.00;2.00;;;;;18.48;44.47;98161.94;4865871;28;102050;-79
2022/05/29 03:15:25;;;;;;;;;2.33;2.00;;;;;18.49;45.00;98171.81;4871345;28;101862;-80
2022/05/29 03:18:09;;;;;;;;;1.33;1.33;;;;;18.51;44.88;98168.78;4864736;28;108107;-79
2022/05/29 03:20:42;;;;;;;;;1.00;1.00;;;;;18.48;44.45;98172.91;4856865;28;101859;-79
2022/05/29 03:23:24;;;;;;;;;1.00;1.00;;;;;18.46;44.33;98172.31;4878352;28;104431;-79
2022/05/29 03:25:57;;;;;;;;;3.00;2.33;;;;;18.48;44.73;98172.06;4851726;28;102348;-79
2022/05/29 03:28:27;;;;;;;;;1.00;1.00;;;;;18.47;44.43;98173.97;4852132;28;103612;-79
2022/05/29 03:30:54;;;;;;;;;2.00;2.00;;;;;18.48;44.65;98183.03;4870397;28;105149;-79
2022/05/29 03:33:21;;;;;;;;;2.00;2.00;;;;;18.45;44.91;98180.81;4870892;28;102876;-79
2022/05/29 03:35:51;;;;;;;;;2.00;1.00;;;;;18.45;44.60;98175.34;4874209;28;101777;-78
2022/05/29 03:38:18;;;;;;;;;1.00;1.00;;;;;18.45;44.76;98180.81;4866378;28;103400;-79
2022/05/29 03:40:47;;;;;;;;;1.00;1.00;;;;;18.44;44.85;98179.16;4856484;28;102179;-79
2022/05/29 03:43:14;;;;;;;;;1.33;1.33;;;;;18.44;44.39;98184.63;4862251;28;102039;-77
2022/05/29 03:45:41;;;;;;;;;1.00;1.00;;;;;18.43;44.56;98183.81;4875346;28;101870;-79
2022/05/29 03:48:08;;;;;;;;;1.67;1.67;;;;;18.44;44.79;98174.50;4872635;28;103470;-79
2022/05/29 03:50:36;;;;;;;;;2.00;1.67;;;;;18.44;44.35;98181.91;4874794;28;102029;-79
2022/05/29 03:53:03;;;;;;;;;1.33;1.33;;;;;18.42;44.80;98175.84;4874399;28;101716;-80
2022/05/29 03:55:30;;;;;;;;;2.67;2.00;;;;;18.44;44.61;98180.00;4858015;28;101600;-78
2022/05/29 03:57:57;;;;;;;;;1.00;1.00;;;;;18.42;44.96;98187.63;4875631;28;103339;-79
2022/05/29 04:00:25;;;;;;;;;0.67;0.33;;;;;18.44;44.79;98176.44;4870522;28;103270;-79
2022/05/29 04:02:52;;;;;;;;;2.00;1.00;;;;;18.42;45.05;98176.69;4855947;28;102612;-79
2022/05/29 04:05:22;;;;;;;;;2.00;2.00;;;;;18.42;44.15;98182.16;4872684;28;102070;-79
2022/05/29 04:13:22;;;;;;;;;2.00;2.00;;;;;18.42;44.41;98181.31;4865647;28;101827;-79
2022/05/29 04:15:49;;;;;;;;;2.00;2.00;;;;;18.38;44.33;98224.81;4847886;28;102348;-79
2022/05/29 04:18:18;;;;;;;;;1.33;1.33;;;;;18.41;44.82;98191.47;4861623;28;103366;-79
2022/05/29 04:20:45;;;;;;;;;2.00;2.00;;;;;18.43;43.99;98189.28;4872797;28;105168;-76
2022/05/29 04:23:12;;;;;;;;;2.00;2.00;;;;;18.42;44.46;98192.28;4867080;28;101724;-79
2022/05/29 04:25:42;;;;;;;;;1.00;1.00;;;;;18.43;44.62;98196.66;4852660;28;102037;-79
2022/05/29 04:28:09;;;;;;;;;2.33;2.00;;;;;18.42;44.71;98195.00;4869842;28;103395;-79
2022/05/29 04:30:37;;;;;;;;;3.00;3.00;;;;;18.40;44.15;98183.50;4869959;28;101730;-79
2022/05/29 04:33:04;;;;;;;;;2.33;2.33;;;;;18.42;44.80;98184.88;4874179;28;101774;-79
2022/05/29 04:35:36;;;;;;;;;2.00;2.00;;;;;18.42;44.14;98184.06;4867856;28;102211;-79
2022/05/29 04:38:03;;;;;;;;;1.00;1.00;;;;;18.42;44.08;98187.63;4867683;28;103541;-79
2022/05/29 04:40:31;;;;;;;;;2.00;2.00;;;;;18.42;44.49;98190.38;4870807;28;101841;-80
2022/05/29 04:42:58;;;;;;;;;1.00;1.00;;;;;18.39;43.97;98188.16;4875569;28;102002;-79
2022/05/29 04:45:26;;;;;;;;;1.00;1.00;;;;;18.40;44.07;98195.28;4870850;28;104397;-79
2022/05/29 04:47:53;;;;;;;;;3.00;2.00;;;;;18.43;44.22;98189.28;4865771;28;103378;-79
2022/05/29 04:50:20;;;;;;;;;2.00;2.00;;;;;18.40;44.58;98189.00;4873732;28;101997;-79
2022/05/29 04:52:50;;;;;;;;;2.00;2.00;;;;;18.43;44.24;98196.66;4874836;28;101972;-79
2022/05/29 04:55:18;;;;;;;;;1.67;1.67;;;;;18.42;44.48;98197.75;4871911;28;102156;-79
2022/05/29 04:57:45;;;;;;;;;1.00;1.00;;;;;18.43;44.63;98192.03;4874275;28;103615;-77
2022/05/29 05:00:13;;;;;;;;;2.00;1.00;;;;;18.40;44.26;98189.81;4876873;28;101864;-79
2022/05/29 05:02:41;;;;;;;;;1.67;1.67;;;;;18.43;44.30;98188.47;4870725;28;101823;-79
2022/05/29 05:05:08;;;;;;;;;2.67;2.00;;;;;18.42;44.53;98190.38;4870729;28;102102;-80
2022/05/29 05:07:35;;;;;;;;;3.00;2.00;;;;;18.42;44.06;98187.63;4870484;28;103515;-79
2022/05/29 05:10:07;;;;;;;;;2.00;2.00;;;;;18.43;44.41;98183.81;4872194;28;101803;-79
2022/05/29 05:12:34;;;;;;;;;2.67;2.67;;;;;18.44;43.75;98182.72;4873206;28;101738;-79
2022/05/29 05:15:01;;;;;;;;;2.00;2.00;;;;;18.39;44.62;98179.94;4874779;28;101583;-79
2022/05/29 05:17:28;;;;;;;;;1.67;1.00;;;;;18.38;44.12;98181.03;4874355;28;103423;-79
2022/05/29 05:19:55;;;;;;;;;3.00;2.00;;;;;18.41;44.14;98186.00;4873448;28;101860;-79
2022/05/29 05:22:22;;;;;;;;;2.33;2.00;;;;;18.43;44.20;98194.75;4873380;28;101982;-79
2022/05/29 05:24:49;;;;;;;;;1.33;1.00;;;;;18.42;44.48;98187.63;4874368;28;102175;-79
2022/05/29 05:27:16;;;;;;;;;2.00;2.00;;;;;18.44;44.03;98176.44;4867645;28;103388;-78
2022/05/29 05:29:43;;;;;;;;;2.00;2.00;;;;;18.45;44.01;98183.56;4877346;28;102054;-79
2022/05/29 05:32:10;;;;;;;;;1.00;1.00;;;;;18.46;44.49;98185.22;4869580;28;103900;-79
2022/05/29 05:34:39;;;;;;;;;2.33;2.00;;;;;18.46;43.67;98186.00;4869859;28;101750;-79
2022/05/29 05:37:07;;;;;;;;;1.00;1.00;;;;;18.46;43.79;98186.00;4869613;28;103585;-80
2022/05/29 05:39:34;;;;;;;;;2.00;2.00;;;;;18.44;44.41;98188.19;4867890;28;101777;-79
2022/05/29 05:42:01;;;;;;;;;2.00;2.00;;;;;18.45;44.32;98187.13;4872224;28;101888;-79
2022/05/29 05:44:28;;;;;;;;;2.00;2.00;;;;;18.45;43.87;98178.91;4872372;28;102751;-79
2022/05/29 05:46:56;;;;;;;;;1.33;1.33;;;;;18.44;43.68;98182.72;4869555;28;103386;-79
2022/05/29 05:49:27;;;;;;;;;1.00;1.00;;;;;18.43;43.61;98183.81;4870199;28;102076;-78
2022/05/29 05:51:57;;;;;;;;;1.67;1.67;;;;;18.44;43.77;98181.91;4853489;28;101880;-79
2022/05/29 05:54:25;;;;;;;;;1.00;1.00;;;;;18.46;43.89;98186.00;4874742;28;101862;-79
2022/05/29 05:56:52;;;;;;;;;1.00;1.00;;;;;18.47;43.91;98187.66;4853415;28;103364;-79
2022/05/29 05:59:19;;;;;;;;;1.33;1.33;;;;;18.47;43.33;98179.47;4870541;28;101936;-79
2022/05/29 06:01:46;;;;;;;;;2.00;1.00;;;;;18.48;43.69;98180.28;4868255;28;101816;-79
2022/05/29 06:04:13;;;;;;;;;2.00;2.00;;;;;18.49;43.98;98184.69;4860250;28;101871;-80
2022/05/29 06:06:40;;;;;;;;;2.00;1.00;;;;;18.51;44.14;98174.28;4869230;28;103515;-79
2022/05/29 06:09:07;;;;;;;;;2.00;2.00;;;;;18.50;44.03;98176.22;4866146;28;101711;-79
2022/05/29 06:11:39;;;;;;;;;1.00;1.00;;;;;18.51;43.75;98186.06;4863644;28;101786;-79
2022/05/29 06:14:07;;;;;;;;;2.00;1.00;;;;;18.51;43.65;98190.69;4868247;28;104438;-79
2022/05/29 06:16:34;;;;;;;;;2.00;1.00;;;;;18.51;44.01;98185.22;4866194;28;103427;-79
2022/05/29 06:19:02;;;;;;;;;1.00;1.00;;;;;18.52;44.18;98145.81;4865675;28;102095;-79
2022/05/29 06:21:29;;;;;;;;;2.00;1.00;;;;;18.51;44.09;98190.69;4866760;28;102019;-79
2022/05/29 06:23:56;;;;;;;;;0.00;0.00;;;;;18.50;44.09;98189.91;4868036;28;104991;-79
2022/05/29 06:26:24;;;;;;;;;1.33;0.67;;;;;18.53;44.18;98183.94;4857371;28;103419;-79
2022/05/29 06:28:51;;;;;;;;;2.00;2.00;;;;;18.56;43.66;98188.88;4868899;28;101887;-79
2022/05/29 06:31:18;;;;;;;;;2.00;2.00;;;;;18.56;44.15;98182.56;4863609;28;101857;-79
2022/05/29 06:33:45;;;;;;;;;2.33;2.00;;;;;18.59;43.82;98182.06;4874378;28;101689;-79
2022/05/29 06:36:15;;;;;;;;;1.00;1.00;;;;;18.60;44.12;98178.22;4870210;28;107377;-79
2022/05/29 06:38:43;;;;;;;;;2.00;1.67;;;;;18.61;43.72;98188.09;4865881;28;102966;-79
2022/05/29 06:41:11;;;;;;;;;1.00;1.00;;;;;18.61;43.57;98194.38;4868662;28;102083;-79
2022/05/29 06:43:39;;;;;;;;;2.00;2.00;;;;;18.60;43.44;98192.72;4877551;28;101900;-80
2022/05/29 06:46:07;;;;;;;;;1.00;1.00;;;;;18.60;44.19;98200.13;4869468;28;103721;-79
2022/05/29 06:48:35;;;;;;;;;1.00;1.00;;;;;18.60;43.88;98195.47;4855760;28;102205;-79
2022/05/29 06:51:06;;;;;;;;;1.00;1.00;;;;;18.61;43.96;98186.16;4871428;28;103585;-79
2022/05/29 06:53:33;;;;;;;;;1.00;1.00;;;;;18.61;43.79;98182.59;4875926;28;102092;-79
2022/05/29 06:56:01;;;;;;;;;1.00;1.00;;;;;18.61;43.74;98186.16;4876243;28;103416;-80
2022/05/29 06:58:28;;;;;;;;;1.33;1.33;;;;;18.63;43.93;98183.19;4874947;28;102113;-79
2022/05/29 07:09:24;;;;;;;;;1.00;1.00;;;;;18.63;44.20;98172.22;4870464;28;101895;-79
2022/05/29 07:11:53;;;;;;;;;1.67;1.00;;;;;18.62;43.94;98174.13;4855356;28;101788;-79
2022/05/29 07:14:21;;;;;;;;;1.00;1.00;;;;;18.63;44.06;98161.28;4873227;28;101791;-79
2022/05/29 07:16:48;;;;;;;;;1.00;1.00;;;;;18.64;43.62;98162.94;4874367;28;103346;-79
2022/05/29 07:19:18;;;;;;;;;1.00;1.00;;;;;18.63;43.45;98156.63;4872259;28;101849;-79
2022/05/29 07:21:45;;;;;;;;;1.00;1.00;;;;;18.64;43.48;98162.94;4872686;28;101732;-80
2022/05/29 07:24:12;;;;;;;;;1.33;1.33;;;;;18.64;43.89;98155.50;4862865;28;101858;-79
2022/05/29 07:26:45;;;;;;;;;1.00;1.00;;;;;18.62;43.85;98160.44;4867270;28;108400;-80
2022/05/29 07:29:12;;;;;;;;;1.00;1.00;;;;;18.63;44.15;98161.28;4870432;28;101790;-79
2022/05/29 07:31:40;;;;;;;;;1.00;1.00;;;;;18.64;44.10;98151.97;4868433;28;102088;-79
2022/05/29 07:34:07;;;;;;;;;0.33;0.33;;;;;18.64;44.14;98152.78;4878559;28;101912;-80
2022/05/29 07:36:34;;;;;;;;;1.67;1.00;;;;;18.64;43.83;98151.97;4872703;28;103456;-79
2022/05/29 07:39:01;;;;;;;;;1.00;1.00;;;;;18.63;43.80;98151.16;4871906;28;104619;-79
2022/05/29 07:44:14;;;;;;;;;1.00;1.00;;;;;18.66;43.66;98150.63;4864569;28;102011;-79
2022/05/29 07:46:41;;;;;;;;;2.67;2.00;;;;;18.65;43.87;98148.94;4872261;28;103411;-79
2022/05/29 07:49:08;;;;;;;;;1.00;1.00;;;;;18.66;43.92;98156.09;4861965;28;101988;-80
2022/05/29 07:51:41;;;;;;;;;0.00;0.00;;;;;18.67;43.74;98154.19;4864310;28;102005;-79
2022/05/29 07:54:08;;;;;;;;;1.00;1.00;;;;;18.66;43.69;98155.25;4871601;28;101867;-79
2022/05/29 07:56:35;;;;;;;;;1.00;1.00;;;;;18.61;44.17;98147.00;4866973;28;103457;-80
2022/05/29 07:59:03;;;;;;;;;1.00;1.00;;;;;18.65;43.81;98148.94;4871254;28;101734;-79
2022/05/29 08:01:30;;;;;;;;;1.00;1.00;;;;;18.67;43.84;98154.19;4876302;28;101949;-79
2022/05/29 08:03:57;;;;;;;;;1.00;1.00;;;;;18.67;43.75;98146.78;4875020;28;102065;-79
2022/05/29 08:06:25;;;;;;;;;1.00;1.00;;;;;18.68;43.90;98153.09;4873651;28;103947;-80
2022/05/29 08:08:52;;;;;;;;;1.00;1.00;;;;;18.68;43.88;98153.94;4857196;28;101715;-78
2022/05/29 08:11:19;;;;;;;;;1.33;1.00;;;;;18.67;44.22;98160.47;4877378;28;101827;-80
2022/05/29 08:13:46;;;;;;;;;1.00;1.00;;;;;18.66;43.98;98149.78;4872800;28;101732;-80
2022/05/29 08:16:16;;;;;;;;;2.00;1.00;;;;;18.66;43.96;98161.56;4832299;28;103414;-80
2022/05/29 08:18:44;;;;;;;;;2.00;1.00;;;;;18.67;43.49;98157.75;4870911;28;102212;-79
2022/05/29 08:21:11;;;;;;;;;1.00;1.00;;;;;18.67;43.75;98146.78;4875321;28;101861;-79
2022/05/29 08:23:41;;;;;;;;;1.00;1.00;;;;;18.68;43.94;98153.09;4869891;28;101736;-79
2022/05/29 08:31:39;;;;;;;;;2.00;2.00;;;;;18.69;43.87;98155.56;4873573;28;101991;-79
2022/05/29 08:34:07;;;;;;;;;1.00;1.00;;;;;18.70;43.64;98153.63;4876833;28;102108;-80
2022/05/29 08:36:35;;;;;;;;;0.33;0.33;;;;;18.69;43.84;98161.03;4854996;28;103995;-79
2022/05/29 08:39:02;;;;;;;;;1.00;1.00;;;;;18.71;44.22;98153.38;4872105;28;102119;-79
2022/05/29 08:41:46;;;;;;;;;1.00;1.00;;;;;18.73;44.08;98149.56;4868149;28;101826;-80
2022/05/29 08:44:16;;;;;;;;;1.00;1.00;;;;;18.72;44.11;98137.78;4875595;28;101947;-79
2022/05/29 08:46:49;;;;;;;;;1.67;1.67;;;;;18.73;43.89;98140.22;4871322;28;103400;-79
2022/05/29 08:49:19;;;;;;;;;1.00;0.33;;;;;18.73;43.72;98138.59;4868427;28;101857;-80
2022/05/29 08:52:19;;;;;;;;;2.00;2.00;;;;;18.73;43.83;98133.97;4872603;28;104525;-79
2022/05/29 08:54:53;;;;;;;;;1.00;1.00;;;;;18.75;44.01;98130.94;4837819;28;101909;-80
2022/05/29 08:57:54;;;;;;;;;1.33;1.00;;;;;18.75;44.04;98125.47;4852268;28;108239;-79
2022/05/29 09:00:30;;;;;;;;;1.00;1.00;;;;;18.76;44.05;98121.63;4861389;28;103387;-77
2022/05/29 09:03:04;;;;;;;;;1.00;1.00;;;;;18.75;43.93;98120.81;4866107;28;104090;-80
2022/05/29 09:05:37;;;;;;;;;1.00;1.00;;;;;18.76;43.70;98116.16;4848365;28;102272;-79
2022/05/29 09:08:09;;;;;;;;;1.00;1.00;;;;;18.76;43.73;98121.63;4847857;28;103375;-80
2022/05/29 09:10:40;;;;;;;;;2.00;2.00;;;;;18.77;43.65;98112.34;4856861;28;102132;-80
2022/05/29 09:13:17;;;;;;;;;1.00;1.00;;;;;18.78;43.87;98116.72;4865071;28;103965;-80
2022/05/29 09:15:47;;;;;;;;;0.00;0.00;;;;;18.77;43.79;98117.81;4851520;28;102082;-80
2022/05/29 09:18:22;;;;;;;;;1.00;1.00;;;;;18.79;43.68;98113.72;4865584;28;103158;-80
2022/05/29 09:21:04;;;;;;;;;1.00;1.00;;;;;18.79;43.78;98121.09;4876239;28;101812;-80
2022/05/29 09:23:36;;;;;;;;;2.67;2.00;;;;;18.80;43.60;98120.00;4871847;28;102035;-79
2022/05/29 09:26:06;;;;;;;;;0.00;0.00;;;;;18.79;43.74;98121.91;4870308;28;102286;-79
2022/05/29 09:28:38;;;;;;;;;1.00;1.00;;;;;18.80;44.05;98115.34;4856343;28;103387;-79
2022/05/29 09:31:21;;;;;;;;;1.00;1.00;;;;;18.81;43.87;98118.94;4848179;28;101938;-80
2022/05/29 09:33:48;;;;;;;;;0.67;0.67;;;;;18.79;43.89;98121.09;4856624;28;102857;-80
2022/05/29 09:36:37;;;;;;;;;1.00;1.00;;;;;18.81;44.02;98118.94;4873616;28;101774;-80
2022/05/29 09:39:09;;;;;;;;;0.00;0.00;;;;;18.81;43.58;98119.75;4872794;28;108515;-79
2022/05/29 09:42:00;;;;;;;;;0.67;0.67;;;;;18.83;43.81;98114.00;4869103;28;101753;-80
2022/05/29 09:44:27;;;;;;;;;1.00;1.00;;;;;18.83;43.64;98103.03;4839000;28;104565;-79
2022/05/29 09:49:40;;;;;;;;;1.00;1.00;;;;;18.83;43.72;98103.84;4872393;28;102130;-80
2022/05/29 09:49:42;;;;;;;;;1.00;1.00;;;;;18.84;43.62;98107.44;4865972;28;103384;-79
2022/05/29 09:52:16;;;;;;;;;2.00;1.33;;;;;18.85;43.67;98096.22;4869552;28;101652;-80
2022/05/29 09:55:04;;;;;;;;;1.00;1.00;;;;;18.85;43.59;98090.75;4853329;28;101978;-79
2022/05/29 09:57:36;;;;;;;;;1.00;1.00;;;;;18.86;43.70;98088.81;4870098;28;101781;-80
2022/05/29 10:00:12;;;;;;;;;0.00;0.00;;;;;18.86;43.53;98083.34;4863123;28;103772;-79
2022/05/29 10:02:45;;;;;;;;;1.00;1.00;;;;;18.86;43.81;98072.38;4867930;28;102072;-79
2022/05/29 10:05:23;;;;;;;;;0.00;0.00;;;;;18.86;43.92;98080.59;4838124;28;101785;-79
2022/05/29 10:07:50;;;;;;;;;0.00;0.00;;;;;18.87;43.65;98074.00;4869426;28;101798;-80
2022/05/29 10:10:22;;;;;;;;;0.00;0.00;;;;;18.86;43.86;98078.69;4846644;28;103398;-80
2022/05/29 10:12:50;;;;;;;;;0.00;0.00;;;;;18.85;43.93;98077.03;4866234;28;101935;-80
2022/05/29 10:15:26;;;;;;;;;1.00;1.00;;;;;18.86;43.75;98073.22;4847718;28;101973;-80
2022/05/29 10:17:54;;;;;;;;;1.00;1.00;;;;;18.88;44.11;98070.19;4872694;28;102057;-80
2022/05/29 10:20:35;;;;;;;;;0.33;0.33;;;;;18.88;43.89;98064.72;4876241;28;103422;-80
2022/05/29 10:23:13;;;;;;;;;0.00;0.00;;;;;18.89;43.79;98071.84;4869019;28;104851;-80
2022/05/29 10:25:54;;;;;;;;;0.00;0.00;;;;;18.89;43.88;98075.41;4857670;28;102047;-80
2022/05/29 10:28:22;;;;;;;;;1.00;1.00;;;;;18.90;43.72;98084.47;4873520;28;101989;-80
2022/05/29 10:31:12;;;;;;;;;1.00;1.00;;;;;18.90;43.86;98087.19;4858873;28;108370;-80
2022/05/29 10:33:40;;;;;;;;;0.00;0.00;;;;;18.91;43.60;98094.34;4871788;28;101820;-80
2022/05/29 10:36:08;;;;;;;;;1.00;1.00;;;;;18.92;43.53;98088.56;4853829;28;102374;-80
2022/05/29 10:38:36;;;;;;;;;1.00;1.00;;;;;18.93;43.96;98092.13;4871513;28;102056;-79
2022/05/29 10:41:04;;;;;;;;;1.00;1.00;;;;;18.92;43.76;98087.75;4876647;28;103415;-80
2022/05/29 10:43:44;;;;;;;;;1.00;1.00;;;;;18.92;43.59;98093.22;4854228;28;102174;-80
2022/05/29 10:46:23;;;;;;;;;0.00;0.00;;;;;18.93;43.67;98083.91;4861495;28;101826;-80
2022/05/29 10:49:19;;;;;;;;;2.00;2.00;;;;;18.94;43.90;98086.41;4867610;28;102077;-80
2022/05/29 10:52:19;;;;;;;;;1.00;1.00;;;;;18.96;43.66;98075.16;4864232;28;108096;-79
2022/05/29 10:55:11;;;;;;;;;0.00;0.00;;;;;18.96;43.52;98062.28;4856286;28;101931;-79
2022/05/29 10:57:55;;;;;;;;;1.00;1.00;;;;;18.97;43.47;98066.66;4868195;28;105154;-79
2022/05/29 11:00:28;;;;;;;;;0.00;0.00;;;;;18.98;44.01;98064.75;4875501;28;102822;-80
2022/05/29 11:03:19;;;;;;;;;1.00;0.00;;;;;18.99;43.62;98063.69;4864331;28;108252;-79
2022/05/29 11:06:13;;;;;;;;;1.33;1.33;;;;;18.98;44.04;98043.66;4867767;28;102128;-80
2022/05/29 11:09:25;;;;;;;;;0.33;0.33;;;;;18.98;43.94;98051.88;4856009;28;101808;-80
2022/05/29 11:12:18;;;;;;;;;1.00;1.00;;;;;18.98;43.52;98051.88;4850019;28;102089;-80
2022/05/29 11:15:09;;;;;;;;;0.00;0.00;;;;;18.99;43.70;98049.97;4871451;28;109689;-80
2022/05/29 11:17:57;;;;;;;;;0.67;0.67;;;;;18.98;43.37;98048.31;4873602;28;102236;-80
2022/05/29 11:20:46;;;;;;;;;1.00;1.00;;;;;18.99;43.69;98049.97;4848988;28;101716;-80
2022/05/29 11:23:22;;;;;;;;;1.00;1.00;;;;;18.99;43.52;98055.44;4875166;28;102164;-80
2022/05/29 11:25:54;;;;;;;;;0.00;0.00;;;;;18.99;43.92;98053.53;4858530;28;108143;-80
2022/05/29 11:28:43;;;;;;;;;0.00;0.00;;;;;18.99;43.75;98050.81;4877285;28;101767;-80
2022/05/29 11:31:23;;;;;;;;;0.00;0.00;;;;;19.00;43.64;98044.22;4845998;28;101783;-80
2022/05/29 11:34:10;;;;;;;;;0.00;0.00;;;;;19.01;43.97;98047.78;4874379;28;101937;-80
2022/05/29 11:36:52;;;;;;;;;1.00;1.00;;;;;19.02;43.49;98046.69;4862894;28;108383;-79
2022/05/29 11:39:33;;;;;;;;;1.00;1.00;;;;;19.02;43.70;98032.97;4873200;28;101537;-80
2022/05/29 11:42:20;;;;;;;;;1.00;1.00;;;;;19.01;43.50;98036.81;4866902;28;102184;-80
2022/05/29 11:44:54;;;;;;;;;0.00;0.00;;;;;19.01;44.03;98021.19;4872007;28;101838;-79
2022/05/29 11:53:32;;;;;;;;;0.00;0.00;;;;;19.01;43.90;98007.50;4862613;28;101754;-80
2022/05/29 11:56:03;;;;;;;;;1.00;1.00;;;;;19.03;43.94;97982.56;4867265;28;101802;-80
2022/05/29 11:58:43;;;;;;;;;0.00;0.00;;;;;19.03;43.91;97977.09;4865446;28;103402;-80
2022/05/29 12:01:11;;;;;;;;;1.00;1.00;;;;;19.04;43.88;97976.84;4848612;28;102309;-80
2022/05/29 12:04:06;;;;;;;;;0.00;0.00;;;;;19.05;43.44;97972.97;4845877;28;102475;-80
2022/05/29 12:06:45;;;;;;;;;1.67;1.00;;;;;19.08;43.67;97972.47;4852670;28;101955;-80
2022/05/29 12:09:15;;;;;;;;;0.33;0.33;;;;;19.09;43.66;97976.03;4848882;28;103623;-81
2022/05/29 12:11:48;;;;;;;;;1.00;1.00;;;;;19.11;43.73;97982.03;4872214;28;101877;-80
2022/05/29 12:14:35;;;;;;;;;0.00;0.00;;;;;19.10;43.38;97986.69;4867138;28;101701;-79
2022/05/29 12:17:46;;;;;;;;;1.33;1.00;;;;;19.11;43.79;97987.53;4861017;28;102272;-80
2022/05/29 12:20:35;;;;;;;;;1.00;0.00;;;;;19.11;43.68;97993.84;4787994;29;108058;-80
2022/05/29 12:23:07;;;;;;;;;2.00;1.00;;;;;19.13;43.53;97996.31;4766897;29;101969;-80